Details From LGAV - Athens Intl Airport Elefterios Venizel
To HEMM - Mersa Matruh
Flight Number -
Tags Decoded
Created
Modified
Stats Distance 449 nm / 831 km
Max Altitude 0 ft / 0 m
Waypoints 4
Social Downloads 2
Likes 0
Share VATSIM

Download

Looking for another format? Having issues loading an existing format? Contact us
Advertisement - Login to hide

Notes

Decoded

Route

LGAV SOREV PAXIS HEMM

ID Type Via Altitude Latitude Longitude Leg Dist Tot Dist Heading (true) Name
O LGAV APT - 0 ft / 0 m 37.92101˚ 23.91920˚ - 0 nm - -
SOREV FIX - 0 ft / 0 m 37.09694˚ 24.42444˚ 55 nm 55 nm 154° / 154° -
PAXIS FIX - 0 ft / 0 m 33.95167˚ 27.33333˚ 236 nm 291 nm 142° / 144° -
O HEMM APT - 0 ft / 0 m 31.33706˚ 27.21371˚ 157 nm 448 nm 182° / 182° -

Altitude Profile

Advertisement - Login to hide

Weather


0- 5 10 15 20 25 30 35+ Temperature / ° C

Clouds and Precipitation
Forecast for 2017-12-16 00:00 UTC. Updated 32 minutes ago

Ground ~20,000 ft ~40,000 ft Winds

LGAV

Details ICAO LGAV (ATH)
Name Athens Intl Airport Elefterios Venizel
Region Greece
Timezone Europe/Athens (UTC+2.0)
Stats Elevation 308 ft / 94 m (AMSL)
Location 37.936357° 23.944470°
Runways 2
Magnetic Variation 4.484° E

METAR

LGAV 152320Z 20010KT 9999 FEW035 13/09 Q1014 NOSIG

Decode

TAF

TAF TAF LGAV 151700Z 1518/1618 22010KT 9999 FEW025 BECMG 1606/1608 22020KT SCT020 SCT070 BECMG 1612/1614 20020G30KT PROB30 TEMPO 1611/1618 5000 RA SCT020 BKN070

Decode

Departure Runways

ID Width Length Bearing (true) Bearing (mag) Surface Threshold Offset Overrun Length
03L 148 ft / 45 m 12,474 ft / 3,802 m 36.51° 32.03° Asphalt 984 ft / 300 m 393 ft / 120 m
03R 148 ft / 45 m 13,131 ft / 4,002 m 36.52° 32.04° Asphalt 984 ft / 300 m 393 ft / 120 m
21L 148 ft / 45 m 13,131 ft / 4,002 m 216.54° 212.06° Asphalt 984 ft / 300 m 393 ft / 120 m
21R 148 ft / 45 m 12,474 ft / 3,802 m 216.53° 212.05° Asphalt 984 ft / 300 m 393 ft / 120 m

HEMM

Details ICAO HEMM (MUH)
Name MERSA MATRUH
Region Egypt
Timezone Africa/Cairo (UTC+2.0)
Stats Elevation 94 ft / 29 m (AMSL)
Location 31.327068° 27.225097°
Runways 2
Magnetic Variation 4.233° E

METAR

HEMM 152300Z 22002KT CAVOK 12/10 Q1024 NOSIG

Decode

TAF

TAF HEMM 152050Z 1520/1624 29007KT 9999 FEW020 BECMG 1521/1523 20010KT

Decode

Destination Runways

ID Width Length Bearing (true) Bearing (mag) Surface Threshold Offset Overrun Length
06 148 ft / 45 m 9,826 ft / 2,995 m 59.88° 55.65° Asphalt 160 ft / 49 m 0 ft / 0 m
15 148 ft / 45 m 9,871 ft / 3,009 m 149.80° 145.57° Asphalt 0 ft / 0 m 80 ft / 24 m
24 148 ft / 45 m 9,826 ft / 2,995 m 239.90° 235.67° Asphalt 160 ft / 49 m 0 ft / 0 m
33 148 ft / 45 m 9,871 ft / 3,009 m 329.81° 325.58° Asphalt 0 ft / 0 m 0 ft / 0 m

Popular Alternatives